Time;durP1;ratioP1;P1;durP2;ratioP2;P2;SDS_P1;SDS_P2;PMS_P1;PMS_P2;Temp;Humidity;BMP_temperature;BMP_pressure;BME280_temperature;BME280_humidity;BME280_pressure;Samples;Min_cycle;Max_cycle;Signal;HPM_P1;HPM_P2
2021/03/16 00:01:44;;;;;;;8.73;2.72;;;;;;;-139.48;100.00;61774.03;5020667;28;20052;-66
2021/03/16 00:04:28;;;;;;;4.45;2.33;;;;;;;-139.48;100.00;61774.03;5020655;28;20096;-66
2021/03/16 00:07:13;;;;;;;4.38;2.42;;;;;;;-139.48;100.00;61774.03;5020529;28;20125;-66
2021/03/16 00:09:57;;;;;;;10.32;3.28;;;;;;;-139.48;100.00;61774.03;5020792;28;20053;-67
2021/03/16 00:12:41;;;;;;;5.03;2.40;;;;;;;-139.48;100.00;61774.03;5006686;28;20069;-67
2021/03/16 00:15:26;;;;;;;9.38;2.80;;;;;;;-139.48;100.00;61774.03;5020633;28;20056;-67
2021/03/16 00:18:14;;;;;;;5.32;2.45;;;;;;;-139.48;100.00;61774.03;5035405;28;20064;-67
2021/03/16 00:20:58;;;;;;;6.05;2.80;;;;;;;-139.48;100.00;61774.03;5021188;28;20133;-66
2021/03/16 00:23:42;;;;;;;6.90;3.90;;;;;;;-139.48;100.00;61774.03;5035170;28;20133;-66
2021/03/16 00:26:26;;;;;;;6.32;3.45;;;;;;;-139.48;100.00;61774.03;5035184;28;20052;-66
2021/03/16 00:29:10;;;;;;;7.28;2.70;;;;;;;-139.48;100.00;61774.03;5035391;28;20052;-66
2021/03/16 00:31:55;;;;;;;6.15;2.50;;;;;;;-139.48;100.00;61774.03;5020305;28;20414;-67
2021/03/16 00:34:39;;;;;;;5.68;2.97;;;;;;;-139.48;100.00;61774.03;5020212;28;20056;-66
2021/03/16 00:37:23;;;;;;;5.57;2.67;;;;;;;-139.48;100.00;61774.03;5020223;28;20068;-67
2021/03/16 00:40:07;;;;;;;6.03;2.70;;;;;;;-139.48;100.00;61774.03;5035199;28;20107;-67
2021/03/16 00:42:51;;;;;;;5.40;2.40;;;;;;;-139.48;100.00;61774.03;5034858;28;20084;-67
2021/03/16 00:45:35;;;;;;;7.88;2.85;;;;;;;-139.48;100.00;61774.03;5019982;28;20433;-67
2021/03/16 00:48:20;;;;;;;8.20;2.47;;;;;;;-139.48;100.00;61774.03;5035012;28;20123;-66
2021/03/16 00:51:04;;;;;;;7.63;2.63;;;;;;;-139.48;100.00;61774.03;5019570;28;20426;-66
2021/03/16 00:53:48;;;;;;;8.32;2.72;;;;;;;-139.48;100.00;61774.03;5034557;28;20100;-67
2021/03/16 00:56:33;;;;;;;8.52;2.60;;;;;;;-139.48;100.00;61774.03;5019926;28;20513;-67
2021/03/16 00:59:17;;;;;;;11.07;2.40;;;;;;;-139.48;100.00;61774.03;5034518;28;20121;-67
2021/03/16 01:02:01;;;;;;;8.48;2.83;;;;;;;-139.48;100.00;61774.03;5034470;28;20547;-67
2021/03/16 01:04:46;;;;;;;6.38;2.33;;;;;;;-139.48;100.00;61774.03;5034302;28;20153;-66
2021/03/16 01:07:30;;;;;;;7.60;2.50;;;;;;;-139.48;100.00;61774.03;5034375;28;20049;-67
2021/03/16 01:10:15;;;;;;;4.90;2.60;;;;;;;-139.48;100.00;61774.03;5005698;28;20052;-67
2021/03/16 01:12:59;;;;;;;7.78;2.60;;;;;;;-139.48;100.00;61774.03;5034559;28;20043;-65
2021/03/16 01:15:44;;;;;;;5.75;2.33;;;;;;;-139.48;100.00;61774.03;5019573;28;20053;-67
2021/03/16 01:18:28;;;;;;;7.63;2.35;;;;;;;-139.48;100.00;61774.03;5034686;28;20051;-66
2021/03/16 01:21:12;;;;;;;5.65;2.50;;;;;;;-139.48;100.00;61774.03;5034150;28;20131;-66
2021/03/16 01:23:56;;;;;;;6.35;2.50;;;;;;;-139.48;100.00;61774.03;5019523;28;20049;-67
2021/03/16 01:26:40;;;;;;;8.95;2.30;;;;;;;-139.48;100.00;61774.03;5034320;28;20103;-67
2021/03/16 01:29:24;;;;;;;4.20;1.98;;;;;;;-139.48;100.00;61774.03;5034044;28;20422;-67
2021/03/16 01:32:09;;;;;;;6.95;2.22;;;;;;;-139.48;100.00;61774.03;5019192;28;20124;-67
2021/03/16 01:34:53;;;;;;;4.07;2.15;;;;;;;-139.48;100.00;61774.03;5034075;28;20099;-67
2021/03/16 01:37:37;;;;;;;7.78;2.10;;;;;;;-139.48;100.00;61774.03;5033816;28;20044;-67
2021/03/16 01:40:36;;;;;;;7.75;2.40;;;;;;;-139.48;100.00;61774.03;5019129;28;20095;-67
2021/03/16 01:43:23;;;;;;;7.22;2.40;;;;;;;-139.48;100.00;61774.03;5033487;28;20056;-67
2021/03/16 01:46:08;;;;;;;7.03;2.30;;;;;;;-139.48;100.00;61774.03;5033708;28;20120;-67
2021/03/16 01:48:52;;;;;;;8.02;2.33;;;;;;;-139.48;100.00;61774.03;5019006;28;20414;-67
2021/03/16 01:51:37;;;;;;;5.43;1.92;;;;;;;-139.48;100.00;61774.03;5004915;28;20056;-67
2021/03/16 01:54:21;;;;;;;3.22;1.80;;;;;;;-139.48;100.00;61774.03;5033747;28;20067;-67
2021/03/16 01:57:05;;;;;;;7.70;1.88;;;;;;;-139.48;100.00;61774.03;5018769;28;20056;-66
2021/03/16 01:59:50;;;;;;;3.13;1.70;;;;;;;-139.48;100.00;61774.03;5018519;28;20163;-69
2021/03/16 02:02:35;;;;;;;5.07;1.77;;;;;;;-139.48;100.00;61774.03;5033641;28;20052;-67
2021/03/16 02:05:18;;;;;;;;;;;;;;;-139.48;100.00;61774.03;5019128;28;20497;-67
2021/03/16 02:08:10;;;;;;;5.27;2.00;;;;;;;-139.48;100.00;61774.03;5033367;28;19920;-66
2021/03/16 02:11:09;;;;;;;6.43;1.85;;;;;;;-139.48;100.00;61774.03;5018384;28;20145;-68
2021/03/16 02:14:22;;;;;;;7.70;2.00;;;;;;;-139.48;100.00;61774.03;5018445;28;20047;-68
2021/03/16 02:17:10;;;;;;;5.85;1.55;;;;;;;-139.48;100.00;61774.03;5004230;28;20045;-67
2021/03/16 02:20:28;;;;;;;5.88;1.85;;;;;;;-139.48;100.00;61774.03;5018433;28;20087;-67
2021/03/16 02:23:18;;;;;;;5.15;1.98;;;;;;;-139.48;100.00;61774.03;5033101;28;20044;-68
2021/03/16 02:26:33;;;;;;;6.00;2.65;;;;;;;-139.48;100.00;61774.03;5004582;28;20045;-67
2021/03/16 02:29:24;;;;;;;3.60;1.70;;;;;;;-139.48;100.00;61774.03;5033331;28;20082;-68
2021/03/16 02:32:10;;;;;;;6.07;1.83;;;;;;;-139.48;100.00;61774.03;5004075;28;20048;-68
2021/03/16 02:34:57;;;;;;;6.93;1.60;;;;;;;-139.48;100.00;61774.03;5018409;28;20107;-68
2021/03/16 02:37:42;;;;;;;7.65;2.15;;;;;;;-139.48;100.00;61774.03;5018383;28;20052;-68
2021/03/16 02:40:27;;;;;;;5.53;2.00;;;;;;;-139.48;100.00;61774.03;5018089;28;20052;-68
2021/03/16 02:43:12;;;;;;;4.32;1.60;;;;;;;-139.48;100.00;61774.03;5004179;28;20052;-68
2021/03/16 02:45:56;;;;;;;6.40;1.90;;;;;;;-139.48;100.00;61774.03;5033081;28;20094;-67
2021/03/16 02:48:42;;;;;;;6.82;1.58;;;;;;;-139.48;100.00;61774.03;5032902;28;20051;-68
2021/03/16 02:51:27;;;;;;;4.82;2.00;;;;;;;-139.48;100.00;61774.03;5032850;28;20052;-68
2021/03/16 02:54:11;;;;;;;6.28;1.85;;;;;;;-139.48;100.00;61774.03;5004111;28;20049;-66
2021/03/16 02:56:56;;;;;;;4.70;1.85;;;;;;;-139.48;100.00;61774.03;5018245;28;20068;-68
2021/03/16 02:59:42;;;;;;;4.55;2.35;;;;;;;-139.48;100.00;61774.03;5032870;28;20056;-68
2021/03/16 03:02:28;;;;;;;4.78;1.85;;;;;;;-139.48;100.00;61774.03;5004620;28;20125;-67
2021/03/16 03:05:12;;;;;;;10.35;2.03;;;;;;;-139.48;100.00;61774.03;5017849;28;20520;-68
2021/03/16 03:07:57;;;;;;;8.13;2.00;;;;;;;-139.48;100.00;61774.03;5017927;28;20132;-68
2021/03/16 03:10:41;;;;;;;5.45;2.03;;;;;;;-139.48;100.00;61774.03;5032846;28;20060;-68
2021/03/16 03:13:25;;;;;;;5.50;2.35;;;;;;;-139.48;100.00;61774.03;5017970;28;20099;-68
2021/03/16 03:16:10;;;;;;;5.03;1.95;;;;;;;-139.48;100.00;61774.03;5018042;28;20048;-68
2021/03/16 03:18:54;;;;;;;9.35;2.20;;;;;;;-139.48;100.00;61774.03;5018015;28;20136;-68
2021/03/16 03:21:42;;;;;;;5.53;2.10;;;;;;;-139.48;100.00;61774.03;5032652;28;20100;-68
2021/03/16 03:24:31;;;;;;;6.57;2.30;;;;;;;-139.48;100.00;61774.03;5017977;28;20044;-68
2021/03/16 03:27:23;;;;;;;6.32;2.90;;;;;;;-139.48;100.00;61774.03;5018560;28;20406;-67
2021/03/16 03:30:09;;;;;;;6.68;2.50;;;;;;;-139.48;100.00;61774.03;5021366;28;20079;-67
2021/03/16 03:32:59;;;;;;;6.28;2.20;;;;;;;-139.48;100.00;61774.03;5021569;28;20091;-68
2021/03/16 03:35:44;;;;;;;7.35;2.40;;;;;;;-139.48;100.00;61774.03;5036403;28;20048;-68
2021/03/16 03:38:29;;;;;;;8.32;2.83;;;;;;;-139.48;100.00;61774.03;5021307;28;20060;-68
2021/03/16 03:41:13;;;;;;;6.40;2.47;;;;;;;-139.48;100.00;61774.03;5021084;28;20052;-67
2021/03/16 03:43:57;;;;;;;6.07;2.53;;;;;;;-139.48;100.00;61774.03;5020979;28;20076;-68
2021/03/16 03:46:41;;;;;;;7.97;2.55;;;;;;;-139.48;100.00;61774.03;5021023;28;20129;-68
2021/03/16 03:49:25;;;;;;;6.97;3.15;;;;;;;-139.48;100.00;61774.03;5035907;28;20057;-67
2021/03/16 03:52:12;;;;;;;8.10;2.38;;;;;;;-139.48;100.00;61774.03;5020799;28;20137;-67
2021/03/16 03:54:57;;;;;;;6.13;3.10;;;;;;;-139.48;100.00;61774.03;5035716;28;20072;-69
2021/03/16 03:57:42;;;;;;;8.20;2.80;;;;;;;-139.48;100.00;61774.03;5035765;28;20057;-68
2021/03/16 04:00:26;;;;;;;5.72;2.10;;;;;;;-139.48;100.00;61774.03;5036163;28;20052;-68
2021/03/16 04:03:11;;;;;;;4.50;2.60;;;;;;;-139.48;100.00;61774.03;5020652;28;20116;-68
2021/03/16 04:05:55;;;;;;;5.30;2.42;;;;;;;-139.48;100.00;61774.03;5035660;28;20110;-68
2021/03/16 04:08:41;;;;;;;7.30;2.50;;;;;;;-139.48;100.00;61774.03;5035589;28;20084;-68
2021/03/16 04:11:26;;;;;;;6.75;2.70;;;;;;;-139.48;100.00;61774.03;5035405;28;20052;-68
2021/03/16 04:14:10;;;;;;;7.18;2.70;;;;;;;-139.48;100.00;61774.03;5020601;28;20107;-66
2021/03/16 04:16:57;;;;;;;10.82;2.83;;;;;;;-139.48;100.00;61774.03;5020717;28;20048;-68
2021/03/16 04:19:42;;;;;;;6.40;2.28;;;;;;;-139.48;100.00;61774.03;5020408;28;20128;-68
2021/03/16 04:22:26;;;;;;;5.88;2.47;;;;;;;-139.48;100.00;61774.03;5035240;28;20083;-68
2021/03/16 04:25:10;;;;;;;7.22;2.65;;;;;;;-139.48;100.00;61774.03;5020531;28;20132;-68
2021/03/16 04:27:54;;;;;;;9.50;3.28;;;;;;;-139.48;100.00;61774.03;5020178;28;20058;-68
2021/03/16 04:30:38;;;;;;;6.15;2.72;;;;;;;-139.48;100.00;61774.03;5020372;28;20109;-68
2021/03/16 04:33:22;;;;;;;5.40;2.50;;;;;;;-139.48;100.00;61774.03;5020046;28;20167;-68
2021/03/16 04:36:06;;;;;;;10.32;3.50;;;;;;;-139.48;100.00;61774.03;5035321;28;20130;-68
2021/03/16 04:38:50;;;;;;;9.27;2.70;;;;;;;-139.48;100.00;61774.03;5034788;28;20056;-66
2021/03/16 04:41:34;;;;;;;8.85;2.78;;;;;;;-139.48;100.00;61774.03;5020207;28;20406;-67
2021/03/16 04:44:18;;;;;;;8.90;3.65;;;;;;;-139.48;100.00;61774.03;5042247;22;20149;-67
2021/03/16 04:47:02;;;;;;;9.15;2.60;;;;;;;-139.48;100.00;61774.03;5033752;28;20426;-67
2021/03/16 04:49:46;;;;;;;9.30;2.70;;;;;;;-139.48;100.00;61774.03;5020088;28;20548;-65
2021/03/16 04:52:31;;;;;;;5.45;2.38;;;;;;;-139.48;100.00;61774.03;5034644;28;20095;-67
2021/03/16 04:55:15;;;;;;;4.82;2.67;;;;;;;-139.48;100.00;61774.03;5034638;28;20576;-68
2021/03/16 04:57:59;;;;;;;5.78;2.50;;;;;;;-139.48;100.00;61774.03;5019881;28;20056;-68
2021/03/16 05:00:43;;;;;;;4.82;2.58;;;;;;;-139.48;100.00;61774.03;5034836;28;20110;-65
2021/03/16 05:03:27;;;;;;;9.43;2.58;;;;;;;-139.48;100.00;61774.03;5034795;28;20095;-67
2021/03/16 05:06:11;;;;;;;11.00;2.42;;;;;;;-139.48;100.00;61774.03;5034466;28;20055;-68
2021/03/16 05:08:57;;;;;;;10.63;3.45;;;;;;;-139.48;100.00;61774.03;5034433;28;20056;-67
2021/03/16 05:11:41;;;;;;;6.72;2.20;;;;;;;-139.48;100.00;61774.03;4992459;28;20057;-67
2021/03/16 05:14:25;;;;;;;6.15;2.28;;;;;;;-139.48;100.00;61774.03;5019475;28;20048;-66
2021/03/16 05:17:11;;;;;;;3.92;2.08;;;;;;;-139.48;100.00;61774.03;5019308;28;20056;-66
2021/03/16 05:19:55;;;;;;;6.57;2.17;;;;;;;-139.48;100.00;61774.03;5019527;28;20048;-67
2021/03/16 05:22:39;;;;;;;8.02;2.50;;;;;;;-139.48;100.00;61774.03;5019132;28;20091;-67
2021/03/16 05:25:23;;;;;;;;;;;;;;;-139.48;100.00;61774.03;5019771;28;20136;-66
2021/03/16 05:28:08;;;;;;;7.38;2.33;;;;;;;-139.48;100.00;61774.03;5034384;28;20428;-67
2021/03/16 05:30:51;;;;;;;8.75;2.60;;;;;;;-139.48;100.00;61774.03;5034269;28;20517;-67
2021/03/16 05:33:36;;;;;;;9.25;2.03;;;;;;;-139.48;100.00;61774.03;5034230;28;20171;-66
2021/03/16 05:36:20;;;;;;;7.90;3.20;;;;;;;-139.48;100.00;61774.03;5005603;28;20040;-67
2021/03/16 05:39:04;;;;;;;5.10;2.10;;;;;;;-139.48;100.00;61774.03;5018860;28;20052;-66
2021/03/16 05:41:49;;;;;;;4.55;1.67;;;;;;;-139.48;100.00;61774.03;5019139;28;20513;-66
2021/03/16 05:44:33;;;;;;;8.93;2.58;;;;;;;-139.48;100.00;61774.03;5018845;28;20128;-67
2021/03/16 05:47:19;;;;;;;5.68;2.28;;;;;;;-139.48;100.00;61774.03;5033710;28;20168;-67
2021/03/16 05:50:04;;;;;;;5.38;2.05;;;;;;;-139.48;100.00;61774.03;5033145;28;20061;-66
2021/03/16 05:52:48;;;;;;;6.15;1.83;;;;;;;-139.48;100.00;61774.03;5033835;28;20071;-66
2021/03/16 05:55:32;;;;;;;5.47;1.85;;;;;;;-139.48;100.00;61774.03;5018530;28;20098;-67
2021/03/16 05:58:17;;;;;;;8.48;1.92;;;;;;;-139.48;100.00;61774.03;5019187;28;20128;-66
2021/03/16 06:01:01;;;;;;;9.75;2.58;;;;;;;-139.48;100.00;61774.03;5033760;28;20460;-65
2021/03/16 06:03:48;;;;;;;7.10;1.92;;;;;;;-139.48;100.00;61774.03;5033463;28;20044;-67
2021/03/16 06:06:33;;;;;;;6.07;2.08;;;;;;;-139.48;100.00;61774.03;5018819;28;20402;-67
2021/03/16 06:09:16;;;;;;;5.03;2.00;;;;;;;-139.48;100.00;61774.03;5033400;28;20052;-66
2021/03/16 06:12:01;;;;;;;8.68;2.03;;;;;;;-139.48;100.00;61774.03;5033245;28;20052;-67
2021/03/16 06:14:45;;;;;;;8.48;2.15;;;;;;;-139.48;100.00;61774.03;5018438;28;20068;-66
2021/03/16 06:17:29;;;;;;;5.32;2.45;;;;;;;-139.48;100.00;61774.03;5018528;28;20048;-67
2021/03/16 06:20:34;;;;;;;5.53;1.92;;;;;;;-139.48;100.00;61774.03;5033512;28;20103;-67
2021/03/16 06:23:18;;;;;;;8.23;2.28;;;;;;;-139.48;100.00;61774.03;5033442;28;20136;-67
2021/03/16 06:26:08;;;;;;;10.05;2.30;;;;;;;-139.48;100.00;61774.03;5018226;28;20133;-67
2021/03/16 06:29:04;;;;;;;6.60;2.45;;;;;;;-139.48;100.00;61774.03;5018535;28;20040;-68
2021/03/16 06:31:49;;;;;;;2.85;1.50;;;;;;;-139.48;100.00;61774.03;5018481;28;20418;-67
2021/03/16 06:34:33;;;;;;;7.57;2.20;;;;;;;-139.48;100.00;61774.03;5033167;28;20476;-67
2021/03/16 06:37:17;;;;;;;9.38;2.42;;;;;;;-139.48;100.00;61774.03;5033044;28;20068;-67
2021/03/16 06:40:03;;;;;;;7.45;2.22;;;;;;;-139.48;100.00;61774.03;5018140;28;20144;-67
2021/03/16 06:42:46;;;;;;;9.13;2.00;;;;;;;-139.48;100.00;61774.03;5033274;28;20092;-67
2021/03/16 06:45:32;;;;;;;9.63;2.65;;;;;;;-139.48;100.00;61774.03;5032806;28;20048;-67
2021/03/16 06:48:17;;;;;;;9.18;2.25;;;;;;;-139.48;100.00;61774.03;5033251;28;20213;-67
2021/03/16 06:51:12;;;;;;;5.50;1.83;;;;;;;-139.48;100.00;61774.03;5033319;28;20087;-66
2021/03/16 06:54:07;;;;;;;6.47;1.92;;;;;;;-139.48;100.00;61774.03;5032808;28;20072;-67
2021/03/16 06:56:57;;;;;;;8.70;2.30;;;;;;;-139.48;100.00;61774.03;5033098;28;20043;-67
2021/03/16 06:59:42;;;;;;;7.18;2.13;;;;;;;-139.48;100.00;61774.03;5033119;28;20095;-67
2021/03/16 07:02:29;;;;;;;9.88;2.47;;;;;;;-139.48;100.00;61774.03;5007102;28;20054;-67
2021/03/16 07:05:27;;;;;;;5.78;2.00;;;;;;;-139.48;100.00;61774.03;5036779;28;20084;-67
2021/03/16 07:08:13;;;;;;;6.70;2.20;;;;;;;-139.48;100.00;61774.03;5022004;28;20452;-67
2021/03/16 07:11:00;;;;;;;5.50;2.25;;;;;;;-139.48;100.00;61774.03;5036850;28;20049;-67
2021/03/16 07:13:44;;;;;;;6.88;2.10;;;;;;;-139.48;100.00;61774.03;5021698;28;20047;-68
2021/03/16 07:16:28;;;;;;;7.13;2.08;;;;;;;-139.48;100.00;61774.03;5021876;28;20512;-67
2021/03/16 07:19:15;;;;;;;5.32;2.40;;;;;;;-139.48;100.00;61774.03;5036718;28;20072;-67
2021/03/16 07:22:00;;;;;;;8.68;2.78;;;;;;;-139.48;100.00;61774.03;5021677;28;20508;-67
2021/03/16 07:24:44;;;;;;;8.07;2.45;;;;;;;-139.48;100.00;61774.03;5036268;28;20056;-67
2021/03/16 07:27:28;;;;;;;9.82;2.13;;;;;;;-139.48;100.00;61774.03;5036572;28;20048;-67
2021/03/16 07:30:13;;;;;;;5.55;2.15;;;;;;;-139.48;100.00;61774.03;5036511;28;20055;-67
2021/03/16 07:33:00;;;;;;;6.90;2.30;;;;;;;-139.48;100.00;61774.03;5021219;28;20505;-68
2021/03/16 07:35:45;;;;;;;8.50;2.20;;;;;;;-139.48;100.00;61774.03;5021531;28;20502;-67
2021/03/16 07:38:29;;;;;;;9.95;2.90;;;;;;;-139.48;100.00;61774.03;5036251;28;20580;-67
2021/03/16 07:41:15;;;;;;;5.97;2.45;;;;;;;-139.48;100.00;61774.03;5036336;28;20044;-67
2021/03/16 07:44:05;;;;;;;6.93;2.40;;;;;;;-139.48;100.00;61774.03;5020984;28;20414;-68
2021/03/16 07:46:53;;;;;;;6.13;2.33;;;;;;;-139.48;100.00;61774.03;5021265;28;20130;-67
2021/03/16 07:49:40;;;;;;;9.30;2.20;;;;;;;-139.48;100.00;61774.03;5021483;28;20068;-68
2021/03/16 07:52:26;;;;;;;10.30;2.90;;;;;;;-139.48;100.00;61774.03;5021188;28;20056;-68
2021/03/16 07:55:31;;;;;;;8.10;2.80;;;;;;;-139.48;100.00;61774.03;5021456;28;20054;-67
2021/03/16 07:58:23;;;;;;;7.10;2.38;;;;;;;-139.48;100.00;61774.03;5036068;28;20087;-65
2021/03/16 08:01:07;;;;;;;7.43;2.47;;;;;;;-139.48;100.00;61774.03;5021396;28;20036;-67
2021/03/16 08:04:03;;;;;;;6.50;2.95;;;;;;;-139.48;100.00;61774.03;5035899;28;20048;-68
2021/03/16 08:06:57;;;;;;;8.52;2.50;;;;;;;-139.48;100.00;61774.03;5020655;28;20184;-69
2021/03/16 08:09:51;;;;;;;6.45;2.40;;;;;;;-139.48;100.00;61774.03;5020623;28;20052;-67
2021/03/16 08:12:35;;;;;;;7.25;2.13;;;;;;;-139.48;100.00;61774.03;5020421;28;20048;-68
2021/03/16 08:15:19;;;;;;;8.05;2.60;;;;;;;-139.48;100.00;61774.03;5020460;28;20066;-69
2021/03/16 08:18:03;;;;;;;13.05;2.63;;;;;;;-139.48;100.00;61774.03;5020710;28;20103;-69
2021/03/16 08:20:48;;;;;;;10.38;2.50;;;;;;;-139.48;100.00;61774.03;5035390;28;20053;-69
2021/03/16 08:23:32;;;;;;;9.73;2.83;;;;;;;-139.48;100.00;61774.03;5035298;28;20048;-66
2021/03/16 08:26:17;;;;;;;5.30;2.17;;;;;;;-139.48;100.00;61774.03;5020609;28;20052;-69
2021/03/16 08:29:01;;;;;;;6.40;2.25;;;;;;;-139.48;100.00;61774.03;5035405;28;20050;-68
2021/03/16 08:31:45;;;;;;;;;;;;;;;-139.48;100.00;61774.03;5035486;28;20114;-64
2021/03/16 08:34:30;;;;;;;5.80;2.25;;;;;;;-139.48;100.00;61774.03;5035278;28;20269;-68
2021/03/16 08:37:22;;;;;;;10.05;2.72;;;;;;;-139.48;100.00;61774.03;5006304;28;20080;-68
2021/03/16 08:40:08;;;;;;;9.07;2.90;;;;;;;-139.48;100.00;61774.03;5020088;28;20521;-68
2021/03/16 08:42:52;;;;;;;4.68;2.10;;;;;;;-139.48;100.00;61774.03;5035220;28;20126;-68
2021/03/16 08:45:37;;;;;;;12.20;2.72;;;;;;;-139.48;100.00;61774.03;5019880;28;20485;-68
2021/03/16 08:48:26;;;;;;;8.65;2.42;;;;;;;-139.48;100.00;61774.03;5035178;28;20144;-68
2021/03/16 08:51:11;;;;;;;14.13;2.58;;;;;;;-139.48;100.00;61774.03;5020045;28;20048;-67
2021/03/16 08:53:55;;;;;;;5.93;2.28;;;;;;;-139.48;100.00;61774.03;5019798;28;20053;-68
2021/03/16 08:56:39;;;;;;;7.60;2.38;;;;;;;-139.48;100.00;61774.03;5019981;28;20060;-67
2021/03/16 08:59:23;;;;;;;9.23;2.15;;;;;;;-139.48;100.00;61774.03;5019961;28;20470;-69
2021/03/16 09:02:07;;;;;;;11.10;2.00;;;;;;;-139.48;100.00;61774.03;5019750;28;20468;-68
2021/03/16 09:04:52;;;;;;;11.70;2.30;;;;;;;-139.48;100.00;61774.03;5034402;28;20496;-68
2021/03/16 09:07:36;;;;;;;4.85;1.65;;;;;;;-139.48;100.00;61774.03;5019795;28;20052;-68
2021/03/16 09:10:21;;;;;;;10.60;2.38;;;;;;;-139.48;100.00;61774.03;5034571;28;20505;-68
2021/03/16 09:13:05;;;;;;;6.05;1.58;;;;;;;-139.48;100.00;61774.03;5034248;28;20044;-68
2021/03/16 09:15:50;;;;;;;7.88;2.53;;;;;;;-139.48;100.00;61774.03;5019641;28;20088;-69
2021/03/16 09:18:34;;;;;;;10.27;2.20;;;;;;;-139.48;100.00;61774.03;5035871;28;20063;-68
2021/03/16 09:21:19;;;;;;;12.10;2.22;;;;;;;-139.48;100.00;61774.03;5036034;28;20048;-68
2021/03/16 09:24:04;;;;;;;9.82;2.00;;;;;;;-139.48;100.00;61774.03;5020185;28;20099;-68
2021/03/16 09:27:15;;;;;;;12.57;1.85;;;;;;;-139.48;100.00;61774.03;5034652;28;20571;-68
2021/03/16 09:29:59;;;;;;;7.95;1.83;;;;;;;-139.48;100.00;61774.03;5019362;28;20175;-68
2021/03/16 09:32:45;;;;;;;5.47;1.70;;;;;;;-139.48;100.00;61774.03;5034043;28;20418;-68
2021/03/16 09:35:29;;;;;;;8.20;2.20;;;;;;;-139.48;100.00;61774.03;5033907;28;20057;-67
2021/03/16 09:38:13;;;;;;;6.07;1.85;;;;;;;-139.48;100.00;61774.03;5019049;28;20493;-68
2021/03/16 09:40:58;;;;;;;7.38;2.35;;;;;;;-139.48;100.00;61774.03;5034109;28;20087;-68
2021/03/16 09:43:42;;;;;;;10.95;2.00;;;;;;;-139.48;100.00;61774.03;5033845;28;20076;-68
2021/03/16 09:46:26;;;;;;;6.88;1.77;;;;;;;-139.48;100.00;61774.03;5033910;28;20556;-68
2021/03/16 09:49:10;;;;;;;9.77;1.52;;;;;;;-139.48;100.00;61774.03;5033992;28;20107;-68
2021/03/16 09:52:00;;;;;;;9.38;1.77;;;;;;;-139.48;100.00;61774.03;5033611;28;20096;-67
2021/03/16 09:54:45;;;;;;;11.15;2.30;;;;;;;-139.48;100.00;61774.03;5004881;28;20052;-67
2021/03/16 09:57:35;;;;;;;5.97;2.10;;;;;;;-139.48;100.00;61774.03;5018653;28;20052;-67
2021/03/16 10:00:22;;;;;;;7.82;1.70;;;;;;;-139.48;100.00;61774.03;5018924;28;20052;-68
2021/03/16 10:03:08;;;;;;;5.55;1.55;;;;;;;-139.48;100.00;61774.03;5033711;28;20052;-67
2021/03/16 10:06:03;;;;;;;7.18;1.77;;;;;;;-139.48;100.00;61774.03;5018509;28;20048;-68
2021/03/16 10:08:47;;;;;;;6.50;2.20;;;;;;;-139.48;100.00;61774.03;5018423;28;20052;-68
2021/03/16 10:11:32;;;;;;;5.70;2.28;;;;;;;-139.48;100.00;61774.03;5033284;28;20521;-68
2021/03/16 10:14:27;;;;;;;8.65;2.00;;;;;;;-139.48;100.00;61774.03;5018430;28;20052;-67
2021/03/16 10:17:12;;;;;;;8.60;1.80;;;;;;;-139.48;100.00;61774.03;5018611;28;20506;-68
2021/03/16 10:19:57;;;;;;;6.63;1.98;;;;;;;-139.48;100.00;61774.03;5033536;28;20119;-67
2021/03/16 10:22:41;;;;;;;4.18;1.50;;;;;;;-139.48;100.00;61774.03;5018327;28;20041;-68
2021/03/16 10:25:30;;;;;;;4.20;1.70;;;;;;;-139.48;100.00;61774.03;5018429;28;20052;-67
2021/03/16 10:28:14;;;;;;;4.68;1.45;;;;;;;-139.48;100.00;61774.03;5018546;28;20483;-68
2021/03/16 10:31:10;;;;;;;4.65;1.83;;;;;;;-139.48;100.00;61774.03;5018381;28;20043;-68
2021/03/16 10:33:55;;;;;;;4.43;1.67;;;;;;;-139.48;100.00;61774.03;5018046;28;20048;-68
2021/03/16 10:36:39;;;;;;;5.15;1.52;;;;;;;-139.48;100.00;61774.03;5036470;28;20064;-68
2021/03/16 10:39:23;;;;;;;5.68;1.63;;;;;;;-139.48;100.00;61774.03;5024824;28;20052;-68
2021/03/16 10:42:07;;;;;;;5.95;1.70;;;;;;;-139.48;100.00;61774.03;5039989;28;20048;-68
2021/03/16 10:44:51;;;;;;;3.83;1.67;;;;;;;-139.48;100.00;61774.03;5062276;22;20141;-64
2021/03/16 10:47:35;;;;;;;4.93;1.42;;;;;;;-139.48;100.00;61774.03;5039842;28;20107;-64
2021/03/16 10:50:20;;;;;;;5.10;1.77;;;;;;;-139.48;100.00;61774.03;5024824;28;20047;-64
2021/03/16 10:53:03;;;;;;;3.65;1.48;;;;;;;-139.48;100.00;61774.03;5038436;28;20052;-64
2021/03/16 10:55:48;;;;;;;8.55;1.40;;;;;;;-139.48;100.00;61774.03;5039376;28;20568;-64
2021/03/16 10:58:32;;;;;;;3.10;1.30;;;;;;;-139.48;100.00;61774.03;5024485;28;20088;-64
2021/03/16 11:01:16;;;;;;;3.45;1.50;;;;;;;-139.48;100.00;61774.03;5039715;28;20079;-64
2021/03/16 11:04:00;;;;;;;8.23;1.60;;;;;;;-139.48;100.00;61774.03;5024692;28;20505;-64
2021/03/16 11:06:45;;;;;;;7.68;2.08;;;;;;;-139.48;100.00;61774.03;5039709;28;20576;-64
2021/03/16 11:09:29;;;;;;;4.65;1.42;;;;;;;-139.48;100.00;61774.03;5010675;28;20052;-64
2021/03/16 11:12:16;;;;;;;6.93;1.60;;;;;;;-139.48;100.00;61774.03;5039555;28;20106;-64
2021/03/16 11:15:00;;;;;;;5.10;1.75;;;;;;;-139.48;100.00;61774.03;5024604;28;20056;-64
2021/03/16 11:17:45;;;;;;;7.35;1.60;;;;;;;-139.48;100.00;61774.03;5039332;28;20068;-63
2021/03/16 11:20:29;;;;;;;3.60;1.40;;;;;;;-139.48;100.00;61774.03;5024499;28;20092;-64
2021/03/16 11:23:13;;;;;;;6.65;1.88;;;;;;;-139.48;100.00;61774.03;5039406;28;20477;-64
2021/03/16 11:25:58;;;;;;;5.70;1.83;;;;;;;-139.48;100.00;61774.03;5039136;28;20063;-64
2021/03/16 11:28:42;;;;;;;5.45;2.17;;;;;;;-139.48;100.00;61774.03;5039205;28;20052;-64
2021/03/16 11:31:26;;;;;;;5.60;1.45;;;;;;;-139.48;100.00;61774.03;5039010;28;20088;-62
2021/03/16 11:34:10;;;;;;;4.63;1.63;;;;;;;-139.48;100.00;61774.03;5024059;28;20465;-65
2021/03/16 11:36:54;;;;;;;7.05;1.50;;;;;;;-139.48;100.00;61774.03;5039068;28;20047;-64
2021/03/16 11:39:38;;;;;;;5.07;1.60;;;;;;;-139.48;100.00;61774.03;5039260;28;20107;-64
2021/03/16 11:42:23;;;;;;;6.90;1.80;;;;;;;-139.48;100.00;61774.03;5039053;28;20557;-64
2021/03/16 11:45:08;;;;;;;4.28;1.45;;;;;;;-139.48;100.00;61774.03;5023924;28;20064;-64
2021/03/16 11:47:51;;;;;;;6.45;1.50;;;;;;;-139.48;100.00;61774.03;5008060;28;20049;-63
2021/03/16 11:50:36;;;;;;;6.95;1.95;;;;;;;-139.48;100.00;61774.03;5021217;28;20052;-64
2021/03/16 11:53:20;;;;;;;6.38;1.73;;;;;;;-139.48;100.00;61774.03;5036010;28;20151;-65
2021/03/16 11:56:04;;;;;;;6.00;1.60;;;;;;;-139.48;100.00;61774.03;5020829;28;20528;-64
2021/03/16 11:58:49;;;;;;;7.78;1.60;;;;;;;-139.48;100.00;61774.03;5021067;28;20104;-64
2021/03/16 12:01:33;;;;;;;8.05;1.40;;;;;;;-139.48;100.00;61774.03;5035705;28;20052;-64
2021/03/16 12:04:17;;;;;;;6.20;2.15;;;;;;;-139.48;100.00;61774.03;5020926;28;20063;-63
2021/03/16 12:07:01;;;;;;;7.00;1.40;;;;;;;-139.48;100.00;61774.03;5020883;28;20087;-64
2021/03/16 12:09:45;;;;;;;5.38;1.67;;;;;;;-139.48;100.00;61774.03;5035554;28;20465;-64
2021/03/16 12:12:29;;;;;;;6.68;1.50;;;;;;;-139.48;100.00;61774.03;5035480;28;20055;-64
2021/03/16 12:15:17;;;;;;;5.60;1.30;;;;;;;-139.48;100.00;61774.03;5020865;28;20115;-64
2021/03/16 12:18:01;;;;;;;7.63;1.80;;;;;;;-139.48;100.00;61774.03;5035498;28;20052;-63
2021/03/16 12:20:46;;;;;;;2.90;1.40;;;;;;;-139.48;100.00;61774.03;5035708;28;20517;-64
2021/03/16 12:23:30;;;;;;;7.40;1.92;;;;;;;-139.48;100.00;61774.03;5035555;28;20044;-64
2021/03/16 12:26:15;;;;;;;8.48;1.83;;;;;;;-139.48;100.00;61774.03;5006418;28;20052;-64
2021/03/16 12:28:59;;;;;;;5.68;1.65;;;;;;;-139.48;100.00;61774.03;5020593;28;20048;-64
2021/03/16 12:31:44;;;;;;;7.78;1.65;;;;;;;-139.48;100.00;61774.03;5035425;28;20096;-64
2021/03/16 12:34:28;;;;;;;3.72;1.35;;;;;;;-139.48;100.00;61774.03;5035130;28;20113;-64